Forside
METAR-TAF:

METAR-TAF

Lufthavne :

Eveleth-Virginia Municipal Airport

Eveleth, Minnesota, USA

Breddekreds: 47-24N, længdekreds: 092-30W, højde: 421 m

Aktuelle vejr

Denne rapport blev lavet for 2 timer og 30 minutter siden, kl. 23:49 UTC
Vind 5 kt fra vestnordvest
Temperatur 12°C
Fugtighed 71%
Tryk 1012 hPa
Sigt: 16.1 km
Spredte skyer i en højde af 6000 ft
Spredte skyer i en højde af 7000 ft
Spredte skyer i en højde af 8000 ft

METAR: KEVM 212349Z AUTO 30005KT 10SM SCT060 SCT070 SCT080 12/07 A2989 RMK AO2 P0002

Tid: 21:19 (02:19 UTC)


TAF: fraværende

Vejrobservationer og prognoser fra mere end 4000 lufthavne (METAR og TAF).

De gule og røde prikker repræsenterer de meteorologiske stationer.

Flyt musen over at se navnet på stationen.

Så klik over at se vejr observationer og prognoser.

At skifte det kort: Klik på de grønne knapper med et sort kors for at zoome ind; på den grønne knap med en bindestreg for at zoome ud; eller på de grønne pile for tilstødende kort.


METAR-TAF: